M/V Yankee Clipper — WDC3923 — position and weather

sailwx.info

Track history (hours):
 
Tides and Currents Weather Stations Pressure Air Temp Water Temp Dewpoint Dewpoint Depression Visibility Wind Speed Wind Dir Waves Ship Positions

M/V Yankee Clipper

Owner: M/V Yankee Clipper, Inc., Seattle, WA. More information available from US FCC via Universal Licensing System and Coast Guard Vessel Documentation Center.

Last reported at 2015-Jun-18 05:30 UTC. Time now 2015-Jul-06 07:11 UTC.
Position N 51°32' W 127°53'.
Warning: this ship's position is 18 days out of date.

Length 27 m; draft 4 m.

Type: Fishing. MMSI: 367016340.

Date/timePositionNaut miles runAvg speedWind from/ knotsBaromVisibWave heightAir tempDewpointWater temp
2015-Jun-18 05:30N 51°32' W 127°53'8 8.7
2015-Jun-18 04:33N 51°24' W 127°52'9 8.6
2015-Jun-18 03:33N 51°15' W 127°52'8 8.4
2015-Jun-18 02:33N 51°08' W 127°46'9 9.1
2015-Jun-18 01:33N 51°01' W 127°36'9 9.4
2015-Jun-18 00:34N 50°55' W 127°25'10 9.6
2015-Jun-17 23:34N 50°50' W 127°12'9 8.8
2015-Jun-17 22:33N 50°45' W 127°00'8 8.2
2015-Jun-17 21:33N 50°40' W 126°50'8 7.6
2015-Jun-17 20:30N 50°34' W 126°41'9 7.5
2015-Jun-17 19:20N 50°30' W 126°29'94 8.7
2015-Jun-17 08:29N 49°34' W 124°32'7 7.8
2015-Jun-17 07:32N 49°29' W 124°24'8 8.3
2015-Jun-17 06:33N 49°24' W 124°13'9 8.4
2015-Jun-17 05:30N 49°20' W 124°02'8 8.3
2015-Jun-17 04:33N 49°15' W 123°51'8 8.5
2015-Jun-17 03:33N 49°11' W 123°40'9 8.9
2015-Jun-17 02:32N 49°05' W 123°30'9 8.6
2015-Jun-17 01:33N 48°59' W 123°20'9 9.4
2015-Jun-17 00:34N 48°53' W 123°10'1010.2
2015-Jun-16 23:33N 48°49' W 122°55'1010.3
2015-Jun-16 22:34N 48°42' W 122°44'011.9
2015-Jun-16 22:34N 48°42' W 122°44'611.2
2015-Jun-16 21:59N 48°36' W 122°45'512.1
2015-Jun-16 21:34N 48°31' W 122°44'10 9.2
2015-Jun-16 20:27N 48°21' W 122°45'1 7.3
2015-Jun-16 20:16N 48°19' W 122°46'23 8.5
2015-Jun-16 17:33N 47°58' W 122°34'710.3
2015-Jun-16 16:53N 47°52' W 122°27'310.0
2015-Jun-16 16:34N 47°49' W 122°26'0 0.0
2015-Jun-16 16:33N 47°49' W 122°26'9 9.4
2015-Jun-16 15:33N 47°40' W 122°24'0 2.2
2015-Jun-16 15:32N 47°40' W 122°24'  
Track history (hours):
 
Tides and Currents Weather Stations Pressure Air Temp Water Temp Dewpoint Dewpoint Depression Visibility Wind Speed Wind Dir Waves Ship Positions

M/V Yankee Clipper

Owner: M/V Yankee Clipper, Inc., Seattle, WA. More information available from US FCC via Universal Licensing System and Coast Guard Vessel Documentation Center.

Last reported at 2015-Jun-18 05:30 UTC. Time now 2015-Jul-06 07:11 UTC.
Position N 51°32' W 127°53'.
Warning: this ship's position is 18 days out of date.

Length 27 m; draft 4 m.

Type: Fishing. MMSI: 367016340.

Date/timePositionNaut miles runAvg speedWind from/ knotsBaromVisibWave heightAir tempDewpointWater temp
2015-Jun-18 05:30N 51°32' W 127°53'8 8.7
2015-Jun-18 04:33N 51°24' W 127°52'9 8.6
2015-Jun-18 03:33N 51°15' W 127°52'8 8.4
2015-Jun-18 02:33N 51°08' W 127°46'9 9.1
2015-Jun-18 01:33N 51°01' W 127°36'9 9.4
2015-Jun-18 00:34N 50°55' W 127°25'10 9.6
2015-Jun-17 23:34N 50°50' W 127°12'9 8.8
2015-Jun-17 22:33N 50°45' W 127°00'8 8.2
2015-Jun-17 21:33N 50°40' W 126°50'8 7.6
2015-Jun-17 20:30N 50°34' W 126°41'9 7.5
2015-Jun-17 19:20N 50°30' W 126°29'94 8.7
2015-Jun-17 08:29N 49°34' W 124°32'7 7.8
2015-Jun-17 07:32N 49°29' W 124°24'8 8.3
2015-Jun-17 06:33N 49°24' W 124°13'9 8.4
2015-Jun-17 05:30N 49°20' W 124°02'8 8.3
2015-Jun-17 04:33N 49°15' W 123°51'8 8.5
2015-Jun-17 03:33N 49°11' W 123°40'9 8.9
2015-Jun-17 02:32N 49°05' W 123°30'9 8.6
2015-Jun-17 01:33N 48°59' W 123°20'9 9.4
2015-Jun-17 00:34N 48°53' W 123°10'1010.2
2015-Jun-16 23:33N 48°49' W 122°55'1010.3
2015-Jun-16 22:34N 48°42' W 122°44'011.9
2015-Jun-16 22:34N 48°42' W 122°44'611.2
2015-Jun-16 21:59N 48°36' W 122°45'512.1
2015-Jun-16 21:34N 48°31' W 122°44'10 9.2
2015-Jun-16 20:27N 48°21' W 122°45'1 7.3
2015-Jun-16 20:16N 48°19' W 122°46'23 8.5
2015-Jun-16 17:33N 47°58' W 122°34'710.3
2015-Jun-16 16:53N 47°52' W 122°27'310.0
2015-Jun-16 16:34N 47°49' W 122°26'0 0.0
2015-Jun-16 16:33N 47°49' W 122°26'9 9.4
2015-Jun-16 15:33N 47°40' W 122°24'0 2.2
2015-Jun-16 15:32N 47°40' W 122°24'  

Dump ship's entire track history